sensor_id;sensor_type;location;lat;lon;timestamp;pressure;altitude;pressure_sealevel;temperature;humidity
64230;BME280;50547;49.498;0.092;2022-11-20T00:01:29;1009;;;10.99;73.69
64230;BME280;50547;49.498;0.092;2022-11-20T00:03:58;1009;;;10.95;74.02
64230;BME280;50547;49.498;0.092;2022-11-20T00:06:28;1009;;;10.97;74.23
64230;BME280;50547;49.498;0.092;2022-11-20T00:08:59;1009;;;11.04;73.82
64230;BME280;50547;49.498;0.092;2022-11-20T00:11:29;1009;;;11.01;74.05
64230;BME280;50547;49.498;0.092;2022-11-20T00:14:00;1009;;;10.94;74.32
64230;BME280;50547;49.498;0.092;2022-11-20T00:16:31;1009;;;10.90;74.78
64230;BME280;50547;49.498;0.092;2022-11-20T00:19:01;1009;;;10.90;74.71
64230;BME280;50547;49.498;0.092;2022-11-20T00:21:30;1009;;;10.80;74.96
64230;BME280;50547;49.498;0.092;2022-11-20T00:23:59;1009;;;10.80;74.76
64230;BME280;50547;49.498;0.092;2022-11-20T00:26:28;1009;;;10.87;74.15
64230;BME280;50547;49.498;0.092;2022-11-20T00:29:00;1009;;;10.81;74.15
64230;BME280;50547;49.498;0.092;2022-11-20T00:31:30;1009;;;10.82;74.05
64230;BME280;50547;49.498;0.092;2022-11-20T00:33:59;1009;;;10.71;74.20
64230;BME280;50547;49.498;0.092;2022-11-20T00:36:31;1009;;;10.67;74.81
64230;BME280;50547;49.498;0.092;2022-11-20T00:39:00;1009;;;10.76;74.42
64230;BME280;50547;49.498;0.092;2022-11-20T00:41:30;1009;;;10.77;74.41
64230;BME280;50547;49.498;0.092;2022-11-20T00:43:59;1009;;;10.59;74.91
64230;BME280;50547;49.498;0.092;2022-11-20T00:46:28;1009;;;10.85;74.35
64230;BME280;50547;49.498;0.092;2022-11-20T00:48:57;1009;;;10.79;74.70
64230;BME280;50547;49.498;0.092;2022-11-20T00:51:27;1009;;;10.77;75.47
64230;BME280;50547;49.498;0.092;2022-11-20T00:53:57;1009;;;10.74;75.48
64230;BME280;50547;49.498;0.092;2022-11-20T00:56:26;1009;;;10.56;75.81
64230;BME280;50547;49.498;0.092;2022-11-20T00:58:58;1009;;;10.80;74.72
64230;BME280;50547;49.498;0.092;2022-11-20T01:01:28;1009;;;10.84;74.38
64230;BME280;50547;49.498;0.092;2022-11-20T01:03:59;1009;;;10.86;74.54
64230;BME280;50547;49.498;0.092;2022-11-20T01:06:30;1009;;;10.72;74.97
64230;BME280;50547;49.498;0.092;2022-11-20T01:09:02;1009;;;10.71;74.88
64230;BME280;50547;49.498;0.092;2022-11-20T01:11:34;1009;;;10.66;74.62
64230;BME280;50547;49.498;0.092;2022-11-20T01:14:05;1009;;;10.56;74.74
64230;BME280;50547;49.498;0.092;2022-11-20T01:16:36;1009;;;10.49;74.86
64230;BME280;50547;49.498;0.092;2022-11-20T01:19:09;1009;;;10.48;74.72
64230;BME280;50547;49.498;0.092;2022-11-20T01:21:40;1009;;;10.46;74.80
64230;BME280;50547;49.498;0.092;2022-11-20T01:24:12;1009;;;10.49;74.65
64230;BME280;50547;49.498;0.092;2022-11-20T01:26:43;1009;;;10.48;74.91
64230;BME280;50547;49.498;0.092;2022-11-20T01:29:15;1009;;;10.47;74.95
64230;BME280;50547;49.498;0.092;2022-11-20T01:31:44;1008;;;10.46;75.03
64230;BME280;50547;49.498;0.092;2022-11-20T01:34:15;1009;;;10.48;74.94
64230;BME280;50547;49.498;0.092;2022-11-20T01:36:45;1009;;;10.46;75.21
64230;BME280;50547;49.498;0.092;2022-11-20T01:39:16;1008;;;10.39;75.67
64230;BME280;50547;49.498;0.092;2022-11-20T01:41:47;1009;;;10.48;74.83
64230;BME280;50547;49.498;0.092;2022-11-20T01:44:19;1008;;;10.48;75.08
64230;BME280;50547;49.498;0.092;2022-11-20T01:46:54;1008;;;10.49;74.80
64230;BME280;50547;49.498;0.092;2022-11-20T01:49:33;1008;;;10.54;74.75
64230;BME280;50547;49.498;0.092;2022-11-20T01:52:05;1008;;;10.43;75.23
64230;BME280;50547;49.498;0.092;2022-11-20T01:54:39;1008;;;10.49;75.35
64230;BME280;50547;49.498;0.092;2022-11-20T01:57:11;1008;;;10.45;75.26
64230;BME280;50547;49.498;0.092;2022-11-20T01:59:46;1008;;;10.43;75.24
64230;BME280;50547;49.498;0.092;2022-11-20T02:02:18;1008;;;10.39;75.25
64230;BME280;50547;49.498;0.092;2022-11-20T02:04:47;1008;;;10.38;75.42
64230;BME280;50547;49.498;0.092;2022-11-20T02:07:18;1008;;;10.31;75.26
64230;BME280;50547;49.498;0.092;2022-11-20T02:09:48;1008;;;10.25;75.23
64230;BME280;50547;49.498;0.092;2022-11-20T02:12:18;1008;;;10.14;75.49
64230;BME280;50547;49.498;0.092;2022-11-20T02:14:47;1008;;;10.07;75.92
64230;BME280;50547;49.498;0.092;2022-11-20T02:17:16;1008;;;10.06;75.54
64230;BME280;50547;49.498;0.092;2022-11-20T02:19:45;1008;;;9.97;76.17
64230;BME280;50547;49.498;0.092;2022-11-20T02:22:18;1008;;;10.00;75.93
64230;BME280;50547;49.498;0.092;2022-11-20T02:24:51;1008;;;10.03;75.95
64230;BME280;50547;49.498;0.092;2022-11-20T02:27:20;1008;;;10.04;75.74
64230;BME280;50547;49.498;0.092;2022-11-20T02:29:52;1008;;;9.94;76.35
64230;BME280;50547;49.498;0.092;2022-11-20T02:32:23;1008;;;9.97;76.16
64230;BME280;50547;49.498;0.092;2022-11-20T02:34:53;1008;;;9.96;76.18
64230;BME280;50547;49.498;0.092;2022-11-20T02:37:23;1008;;;9.93;76.47
64230;BME280;50547;49.498;0.092;2022-11-20T02:39:56;1008;;;9.89;76.58
64230;BME280;50547;49.498;0.092;2022-11-20T02:42:25;1008;;;10.02;76.31
64230;BME280;50547;49.498;0.092;2022-11-20T02:44:55;1008;;;10.01;76.62
64230;BME280;50547;49.498;0.092;2022-11-20T02:47:24;1008;;;9.94;76.55
64230;BME280;50547;49.498;0.092;2022-11-20T02:49:53;1008;;;9.97;76.51
64230;BME280;50547;49.498;0.092;2022-11-20T02:52:22;1008;;;9.94;76.62
64230;BME280;50547;49.498;0.092;2022-11-20T02:54:52;1007;;;9.91;76.50
64230;BME280;50547;49.498;0.092;2022-11-20T02:57:21;1007;;;9.84;76.80
64230;BME280;50547;49.498;0.092;2022-11-20T02:59:50;1007;;;9.90;76.32
64230;BME280;50547;49.498;0.092;2022-11-20T03:02:19;1007;;;9.88;76.45
64230;BME280;50547;49.498;0.092;2022-11-20T03:04:48;1007;;;9.94;76.21
64230;BME280;50547;49.498;0.092;2022-11-20T03:07:17;1007;;;9.99;76.21
64230;BME280;50547;49.498;0.092;2022-11-20T03:09:46;1007;;;10.01;76.22
64230;BME280;50547;49.498;0.092;2022-11-20T03:12:15;1007;;;10.15;75.86
64230;BME280;50547;49.498;0.092;2022-11-20T03:14:44;1007;;;10.16;76.15
64230;BME280;50547;49.498;0.092;2022-11-20T03:17:13;1007;;;10.08;76.29
64230;BME280;50547;49.498;0.092;2022-11-20T03:19:42;1007;;;10.11;76.23
64230;BME280;50547;49.498;0.092;2022-11-20T03:22:18;1007;;;10.10;76.49
64230;BME280;50547;49.498;0.092;2022-11-20T03:24:47;1007;;;10.08;76.52
64230;BME280;50547;49.498;0.092;2022-11-20T03:27:16;1007;;;10.13;76.41
64230;BME280;50547;49.498;0.092;2022-11-20T03:29:45;1007;;;10.14;76.13
64230;BME280;50547;49.498;0.092;2022-11-20T03:32:14;1007;;;10.22;75.96
64230;BME280;50547;49.498;0.092;2022-11-20T03:34:43;1007;;;10.23;75.88
64230;BME280;50547;49.498;0.092;2022-11-20T03:37:12;1007;;;10.21;75.91
64230;BME280;50547;49.498;0.092;2022-11-20T03:39:41;1007;;;10.18;76.00
64230;BME280;50547;49.498;0.092;2022-11-20T03:42:10;1007;;;10.22;75.67
64230;BME280;50547;49.498;0.092;2022-11-20T03:44:38;1007;;;10.22;75.77
64230;BME280;50547;49.498;0.092;2022-11-20T03:47:08;1007;;;10.17;75.95
64230;BME280;50547;49.498;0.092;2022-11-20T03:49:37;1007;;;10.22;75.97
64230;BME280;50547;49.498;0.092;2022-11-20T03:52:06;1007;;;10.25;76.00
64230;BME280;50547;49.498;0.092;2022-11-20T03:54:35;1007;;;10.26;75.96
64230;BME280;50547;49.498;0.092;2022-11-20T03:57:04;1007;;;10.29;75.87
64230;BME280;50547;49.498;0.092;2022-11-20T03:59:33;1007;;;10.27;76.09
64230;BME280;50547;49.498;0.092;2022-11-20T04:02:02;1007;;;10.28;75.85
64230;BME280;50547;49.498;0.092;2022-11-20T04:04:31;1007;;;10.25;75.91
64230;BME280;50547;49.498;0.092;2022-11-20T04:07:00;1006;;;10.28;76.02
64230;BME280;50547;49.498;0.092;2022-11-20T04:09:29;1007;;;10.28;75.97
64230;BME280;50547;49.498;0.092;2022-11-20T04:11:58;1007;;;10.31;75.82
64230;BME280;50547;49.498;0.092;2022-11-20T04:14:27;1007;;;10.30;76.00
64230;BME280;50547;49.498;0.092;2022-11-20T04:16:56;1007;;;10.35;75.86
64230;BME280;50547;49.498;0.092;2022-11-20T04:19:25;1007;;;10.40;76.26
64230;BME280;50547;49.498;0.092;2022-11-20T04:21:54;1007;;;10.42;76.47
64230;BME280;50547;49.498;0.092;2022-11-20T04:24:23;1006;;;10.46;76.67
64230;BME280;50547;49.498;0.092;2022-11-20T04:26:49;1006;;;10.46;76.90
64230;BME280;50547;49.498;0.092;2022-11-20T04:29:19;1006;;;10.46;77.15
64230;BME280;50547;49.498;0.092;2022-11-20T04:31:48;1006;;;10.54;76.75
64230;BME280;50547;49.498;0.092;2022-11-20T04:34:17;1006;;;10.59;76.63
64230;BME280;50547;49.498;0.092;2022-11-20T04:36:47;1006;;;10.57;77.07
64230;BME280;50547;49.498;0.092;2022-11-20T04:39:16;1006;;;10.62;76.92
64230;BME280;50547;49.498;0.092;2022-11-20T04:41:46;1006;;;10.65;76.62
64230;BME280;50547;49.498;0.092;2022-11-20T04:44:15;1006;;;10.60;76.59
64230;BME280;50547;49.498;0.092;2022-11-20T04:46:44;1006;;;10.64;76.66
64230;BME280;50547;49.498;0.092;2022-11-20T04:49:14;1006;;;10.55;76.77
64230;BME280;50547;49.498;0.092;2022-11-20T04:51:43;1006;;;10.62;76.69
64230;BME280;50547;49.498;0.092;2022-11-20T04:54:12;1006;;;10.66;76.46
64230;BME280;50547;49.498;0.092;2022-11-20T04:56:42;1006;;;10.63;76.72
64230;BME280;50547;49.498;0.092;2022-11-20T04:59:11;1006;;;10.68;76.36
64230;BME280;50547;49.498;0.092;2022-11-20T05:01:41;1006;;;10.75;76.37
64230;BME280;50547;49.498;0.092;2022-11-20T05:04:10;1006;;;10.71;76.50
64230;BME280;50547;49.498;0.092;2022-11-20T05:06:40;1006;;;10.61;76.69
64230;BME280;50547;49.498;0.092;2022-11-20T05:09:09;1006;;;10.64;76.63
64230;BME280;50547;49.498;0.092;2022-11-20T05:11:39;1006;;;10.55;76.55
64230;BME280;50547;49.498;0.092;2022-11-20T05:14:08;1006;;;10.61;76.44
64230;BME280;50547;49.498;0.092;2022-11-20T05:16:38;1006;;;10.61;76.53
64230;BME280;50547;49.498;0.092;2022-11-20T05:19:08;1006;;;10.63;76.44
64230;BME280;50547;49.498;0.092;2022-11-20T05:21:37;1006;;;10.47;76.62
64230;BME280;50547;49.498;0.092;2022-11-20T05:24:07;1006;;;10.46;76.42
64230;BME280;50547;49.498;0.092;2022-11-20T05:26:36;1006;;;10.53;76.15
64230;BME280;50547;49.498;0.092;2022-11-20T05:29:06;1006;;;10.47;76.12
64230;BME280;50547;49.498;0.092;2022-11-20T05:31:35;1006;;;10.50;76.09
64230;BME280;50547;49.498;0.092;2022-11-20T05:34:05;1006;;;10.43;76.73
64230;BME280;50547;49.498;0.092;2022-11-20T05:36:31;1006;;;10.57;76.48
64230;BME280;50547;49.498;0.092;2022-11-20T05:39:01;1006;;;10.45;76.79
64230;BME280;50547;49.498;0.092;2022-11-20T05:41:30;1006;;;10.56;76.62
64230;BME280;50547;49.498;0.092;2022-11-20T05:43:59;1006;;;10.58;77.14
64230;BME280;50547;49.498;0.092;2022-11-20T05:46:29;1006;;;10.60;77.52
64230;BME280;50547;49.498;0.092;2022-11-20T05:48:58;1006;;;10.58;78.40
64230;BME280;50547;49.498;0.092;2022-11-20T05:51:27;1006;;;10.36;79.52
64230;BME280;50547;49.498;0.092;2022-11-20T05:53:57;1006;;;10.37;79.44
64230;BME280;50547;49.498;0.092;2022-11-20T05:56:26;1006;;;10.32;79.99
64230;BME280;50547;49.498;0.092;2022-11-20T05:58:56;1006;;;10.36;80.36
64230;BME280;50547;49.498;0.092;2022-11-20T06:01:26;1006;;;10.36;80.47
64230;BME280;50547;49.498;0.092;2022-11-20T06:03:55;1006;;;10.20;81.32
64230;BME280;50547;49.498;0.092;2022-11-20T06:06:24;1006;;;10.08;82.18
64230;BME280;50547;49.498;0.092;2022-11-20T06:08:54;1006;;;9.94;83.08
64230;BME280;50547;49.498;0.092;2022-11-20T06:11:24;1006;;;9.95;82.98
64230;BME280;50547;49.498;0.092;2022-11-20T06:13:53;1006;;;9.93;83.59
64230;BME280;50547;49.498;0.092;2022-11-20T06:16:23;1006;;;9.91;83.93
64230;BME280;50547;49.498;0.092;2022-11-20T06:18:52;1006;;;9.99;83.87
64230;BME280;50547;49.498;0.092;2022-11-20T06:21:22;1006;;;9.90;84.44
64230;BME280;50547;49.498;0.092;2022-11-20T06:23:52;1006;;;9.98;84.10
64230;BME280;50547;49.498;0.092;2022-11-20T06:26:23;1006;;;9.87;84.69
64230;BME280;50547;49.498;0.092;2022-11-20T06:28:53;1005;;;9.79;85.16
64230;BME280;50547;49.498;0.092;2022-11-20T06:31:25;1006;;;9.87;84.75
64230;BME280;50547;49.498;0.092;2022-11-20T06:33:55;1006;;;9.73;85.39
64230;BME280;50547;49.498;0.092;2022-11-20T06:36:24;1006;;;9.74;85.32
64230;BME280;50547;49.498;0.092;2022-11-20T06:38:53;1005;;;9.77;84.99
64230;BME280;50547;49.498;0.092;2022-11-20T06:41:23;1005;;;9.68;85.44
64230;BME280;50547;49.498;0.092;2022-11-20T06:43:52;1006;;;9.69;85.53
64230;BME280;50547;49.498;0.092;2022-11-20T06:46:22;1006;;;9.66;85.70
64230;BME280;50547;49.498;0.092;2022-11-20T06:48:51;1005;;;9.68;85.51
64230;BME280;50547;49.498;0.092;2022-11-20T06:51:21;1005;;;9.64;85.62
64230;BME280;50547;49.498;0.092;2022-11-20T06:53:50;1005;;;9.72;85.39
64230;BME280;50547;49.498;0.092;2022-11-20T06:56:19;1005;;;9.77;85.46
64230;BME280;50547;49.498;0.092;2022-11-20T06:58:49;1005;;;9.84;85.39
64230;BME280;50547;49.498;0.092;2022-11-20T07:01:18;1005;;;9.79;85.60
64230;BME280;50547;49.498;0.092;2022-11-20T07:03:49;1005;;;9.84;85.52
64230;BME280;50547;49.498;0.092;2022-11-20T07:06:18;1005;;;9.85;85.75
64230;BME280;50547;49.498;0.092;2022-11-20T07:08:50;1005;;;9.93;85.59
64230;BME280;50547;49.498;0.092;2022-11-20T07:11:19;1005;;;9.97;85.79
64230;BME280;50547;49.498;0.092;2022-11-20T07:13:49;1005;;;9.93;86.13
64230;BME280;50547;49.498;0.092;2022-11-20T07:16:18;1005;;;9.93;86.23
64230;BME280;50547;49.498;0.092;2022-11-20T07:18:48;1005;;;9.97;86.20
64230;BME280;50547;49.498;0.092;2022-11-20T07:21:17;1005;;;10.03;85.98
64230;BME280;50547;49.498;0.092;2022-11-20T07:23:47;1005;;;10.00;86.25
64230;BME280;50547;49.498;0.092;2022-11-20T07:26:16;1005;;;9.96;86.38
64230;BME280;50547;49.498;0.092;2022-11-20T07:28:45;1005;;;9.99;86.34
64230;BME280;50547;49.498;0.092;2022-11-20T07:31:15;1005;;;10.05;86.23
64230;BME280;50547;49.498;0.092;2022-11-20T07:33:44;1005;;;10.08;86.36
64230;BME280;50547;49.498;0.092;2022-11-20T07:36:14;1005;;;10.03;86.49
64230;BME280;50547;49.498;0.092;2022-11-20T07:38:43;1005;;;10.08;86.33
64230;BME280;50547;49.498;0.092;2022-11-20T07:41:13;1005;;;10.09;86.50
64230;BME280;50547;49.498;0.092;2022-11-20T07:43:42;1005;;;10.09;86.71
64230;BME280;50547;49.498;0.092;2022-11-20T07:46:11;1005;;;10.09;86.68
64230;BME280;50547;49.498;0.092;2022-11-20T07:48:41;1005;;;10.04;86.90
64230;BME280;50547;49.498;0.092;2022-11-20T07:51:10;1005;;;10.11;86.95
64230;BME280;50547;49.498;0.092;2022-11-20T07:53:40;1005;;;10.19;86.74
64230;BME280;50547;49.498;0.092;2022-11-20T07:56:06;1005;;;10.27;86.70
64230;BME280;50547;49.498;0.092;2022-11-20T07:58:35;1005;;;10.27;86.95
64230;BME280;50547;49.498;0.092;2022-11-20T08:01:06;1005;;;10.31;86.94
64230;BME280;50547;49.498;0.092;2022-11-20T08:03:34;1005;;;10.31;87.12
64230;BME280;50547;49.498;0.092;2022-11-20T08:06:05;1005;;;10.43;86.76
64230;BME280;50547;49.498;0.092;2022-11-20T08:08:35;1005;;;10.38;86.99
64230;BME280;50547;49.498;0.092;2022-11-20T08:11:04;1005;;;10.38;86.96
64230;BME280;50547;49.498;0.092;2022-11-20T08:13:34;1005;;;10.31;87.34
64230;BME280;50547;49.498;0.092;2022-11-20T08:16:04;1005;;;10.34;87.29
64230;BME280;50547;49.498;0.092;2022-11-20T08:18:33;1005;;;10.39;87.33
64230;BME280;50547;49.498;0.092;2022-11-20T08:21:02;1005;;;10.43;87.52
64230;BME280;50547;49.498;0.092;2022-11-20T08:23:31;1005;;;10.42;87.74
64230;BME280;50547;49.498;0.092;2022-11-20T08:25:58;1005;;;10.41;87.79
64230;BME280;50547;49.498;0.092;2022-11-20T08:28:27;1005;;;10.45;87.59
64230;BME280;50547;49.498;0.092;2022-11-20T08:30:59;1005;;;10.44;87.78
64230;BME280;50547;49.498;0.092;2022-11-20T08:33:29;1005;;;10.58;87.47
64230;BME280;50547;49.498;0.092;2022-11-20T08:36:00;1005;;;10.75;87.20
64230;BME280;50547;49.498;0.092;2022-11-20T08:38:30;1005;;;10.66;87.81
64230;BME280;50547;49.498;0.092;2022-11-20T08:41:00;1005;;;10.70;87.43
64230;BME280;50547;49.498;0.092;2022-11-20T08:43:30;1005;;;10.63;87.65
64230;BME280;50547;49.498;0.092;2022-11-20T08:45:59;1005;;;10.75;86.92
64230;BME280;50547;49.498;0.092;2022-11-20T08:48:28;1005;;;10.80;86.99
64230;BME280;50547;49.498;0.092;2022-11-20T08:50:58;1005;;;10.89;86.95
64230;BME280;50547;49.498;0.092;2022-11-20T08:53:27;1005;;;10.98;87.01
64230;BME280;50547;49.498;0.092;2022-11-20T08:55:57;1005;;;11.04;86.74
64230;BME280;50547;49.498;0.092;2022-11-20T08:58:26;1005;;;11.03;86.86
64230;BME280;50547;49.498;0.092;2022-11-20T09:00:56;1005;;;11.00;87.02
64230;BME280;50547;49.498;0.092;2022-11-20T09:03:25;1005;;;10.99;87.16
64230;BME280;50547;49.498;0.092;2022-11-20T09:05:57;1005;;;10.96;87.28
64230;BME280;50547;49.498;0.092;2022-11-20T09:08:27;1005;;;11.16;86.57
64230;BME280;50547;49.498;0.092;2022-11-20T09:10:57;1005;;;11.03;87.29
64230;BME280;50547;49.498;0.092;2022-11-20T09:13:28;1005;;;11.12;87.03
64230;BME280;50547;49.498;0.092;2022-11-20T09:15:58;1005;;;11.27;86.34
64230;BME280;50547;49.498;0.092;2022-11-20T09:18:28;1005;;;11.34;86.28
64230;BME280;50547;49.498;0.092;2022-11-20T09:20:57;1005;;;11.37;86.69
64230;BME280;50547;49.498;0.092;2022-11-20T09:23:30;1005;;;11.41;86.91
64230;BME280;50547;49.498;0.092;2022-11-20T09:26:02;1005;;;11.36;87.44
64230;BME280;50547;49.498;0.092;2022-11-20T09:28:31;1005;;;11.40;87.36
64230;BME280;50547;49.498;0.092;2022-11-20T09:31:03;1005;;;11.63;86.78
64230;BME280;50547;49.498;0.092;2022-11-20T09:33:43;1005;;;11.61;87.21
64230;BME280;50547;49.498;0.092;2022-11-20T09:36:12;1005;;;11.82;86.86
64230;BME280;50547;49.498;0.092;2022-11-20T09:38:41;1005;;;11.76;87.58
64230;BME280;50547;49.498;0.092;2022-11-20T09:41:27;1005;;;12.02;86.66
64230;BME280;50547;49.498;0.092;2022-11-20T09:44:06;1005;;;12.13;86.80
64230;BME280;50547;49.498;0.092;2022-11-20T09:46:47;1005;;;12.22;87.08
64230;BME280;50547;49.498;0.092;2022-11-20T09:49:27;1005;;;12.31;87.75
64230;BME280;50547;49.498;0.092;2022-11-20T09:52:14;1005;;;12.47;87.66
64230;BME280;50547;49.498;0.092;2022-11-20T09:54:46;1005;;;12.53;87.12
64230;BME280;50547;49.498;0.092;2022-11-20T09:57:21;1005;;;12.36;86.03
64230;BME280;50547;49.498;0.092;2022-11-20T09:59:52;1005;;;12.28;84.20
64230;BME280;50547;49.498;0.092;2022-11-20T10:02:29;1005;;;12.36;81.70
64230;BME280;50547;49.498;0.092;2022-11-20T10:05:07;1005;;;12.50;79.91
64230;BME280;50547;49.498;0.092;2022-11-20T10:07:44;1005;;;12.50;79.35
64230;BME280;50547;49.498;0.092;2022-11-20T10:10:33;1005;;;12.59;78.52
64230;BME280;50547;49.498;0.092;2022-11-20T10:13:14;1005;;;12.40;77.91
64230;BME280;50547;49.498;0.092;2022-11-20T10:15:54;1005;;;12.34;77.41
64230;BME280;50547;49.498;0.092;2022-11-20T10:18:40;1005;;;12.41;76.66
64230;BME280;50547;49.498;0.092;2022-11-20T10:21:20;1006;;;12.42;75.38
64230;BME280;50547;49.498;0.092;2022-11-20T10:24:23;1005;;;12.47;74.06
64230;BME280;50547;49.498;0.092;2022-11-20T10:27:05;1006;;;12.49;73.34
64230;BME280;50547;49.498;0.092;2022-11-20T10:29:40;1006;;;12.58;72.23
64230;BME280;50547;49.498;0.092;2022-11-20T10:32:14;1005;;;12.66;71.20
64230;BME280;50547;49.498;0.092;2022-11-20T10:34:50;1006;;;12.75;70.52
64230;BME280;50547;49.498;0.092;2022-11-20T10:37:23;1006;;;12.90;70.26
64230;BME280;50547;49.498;0.092;2022-11-20T10:39:58;1006;;;12.99;71.36
64230;BME280;50547;49.498;0.092;2022-11-20T10:42:31;1006;;;12.99;71.86
64230;BME280;50547;49.498;0.092;2022-11-20T10:45:11;1006;;;13.05;72.87
64230;BME280;50547;49.498;0.092;2022-11-20T10:48:07;1006;;;13.08;72.77
64230;BME280;50547;49.498;0.092;2022-11-20T10:50:47;1006;;;13.03;71.97
64230;BME280;50547;49.498;0.092;2022-11-20T10:53:31;1006;;;13.21;71.78
64230;BME280;50547;49.498;0.092;2022-11-20T10:56:09;1006;;;13.15;72.20
64230;BME280;50547;49.498;0.092;2022-11-20T10:58:52;1006;;;13.22;71.70
64230;BME280;50547;49.498;0.092;2022-11-20T11:01:23;1006;;;13.26;71.14
64230;BME280;50547;49.498;0.092;2022-11-20T11:03:52;1006;;;13.24;70.68
64230;BME280;50547;49.498;0.092;2022-11-20T11:06:28;1006;;;13.36;70.35
64230;BME280;50547;49.498;0.092;2022-11-20T11:09:04;1006;;;13.51;69.74
64230;BME280;50547;49.498;0.092;2022-11-20T11:11:38;1006;;;13.69;69.34
64230;BME280;50547;49.498;0.092;2022-11-20T11:14:09;1006;;;14.01;69.05
64230;BME280;50547;49.498;0.092;2022-11-20T11:16:49;1006;;;13.99;69.13
64230;BME280;50547;49.498;0.092;2022-11-20T11:19:20;1006;;;13.89;68.96
64230;BME280;50547;49.498;0.092;2022-11-20T11:21:51;1006;;;13.94;69.62
64230;BME280;50547;49.498;0.092;2022-11-20T11:24:22;1006;;;13.89;69.56
64230;BME280;50547;49.498;0.092;2022-11-20T11:26:55;1006;;;14.12;68.89
64230;BME280;50547;49.498;0.092;2022-11-20T11:29:25;1006;;;14.33;68.36
64230;BME280;50547;49.498;0.092;2022-11-20T11:32:03;1006;;;14.51;68.00
64230;BME280;50547;49.498;0.092;2022-11-20T11:34:33;1006;;;14.37;68.34
64230;BME280;50547;49.498;0.092;2022-11-20T11:37:01;1006;;;14.26;67.82
64230;BME280;50547;49.498;0.092;2022-11-20T11:39:32;1006;;;14.42;67.12
64230;BME280;50547;49.498;0.092;2022-11-20T11:42:02;1006;;;14.13;68.16
64230;BME280;50547;49.498;0.092;2022-11-20T11:44:31;1006;;;13.99;68.30
64230;BME280;50547;49.498;0.092;2022-11-20T11:47:02;1006;;;13.81;69.13
64230;BME280;50547;49.498;0.092;2022-11-20T11:49:32;1005;;;13.80;69.13
64230;BME280;50547;49.498;0.092;2022-11-20T11:52:08;1006;;;13.84;69.53
64230;BME280;50547;49.498;0.092;2022-11-20T11:54:43;1006;;;13.95;68.71
64230;BME280;50547;49.498;0.092;2022-11-20T11:57:23;1006;;;13.64;67.85
64230;BME280;50547;49.498;0.092;2022-11-20T12:00:13;1006;;;12.89;68.61
64230;BME280;50547;49.498;0.092;2022-11-20T12:02:53;1006;;;12.82;69.30
64230;BME280;50547;49.498;0.092;2022-11-20T12:05:28;1006;;;13.08;66.20
64230;BME280;50547;49.498;0.092;2022-11-20T12:08:01;1006;;;13.32;63.73
64230;BME280;50547;49.498;0.092;2022-11-20T12:10:44;1006;;;13.63;63.12
64230;BME280;50547;49.498;0.092;2022-11-20T12:13:23;1006;;;13.93;64.01
64230;BME280;50547;49.498;0.092;2022-11-20T12:15:55;1006;;;13.93;64.17
64230;BME280;50547;49.498;0.092;2022-11-20T12:18:24;1006;;;13.80;66.04
64230;BME280;50547;49.498;0.092;2022-11-20T12:21:04;1006;;;13.77;66.44
64230;BME280;50547;49.498;0.092;2022-11-20T12:23:44;1006;;;13.90;67.33
64230;BME280;50547;49.498;0.092;2022-11-20T12:26:27;1006;;;13.81;67.83
64230;BME280;50547;49.498;0.092;2022-11-20T12:29:09;1006;;;13.72;68.19
64230;BME280;50547;49.498;0.092;2022-11-20T12:31:52;1006;;;13.80;68.37
64230;BME280;50547;49.498;0.092;2022-11-20T12:34:40;1006;;;13.84;68.97
64230;BME280;50547;49.498;0.092;2022-11-20T12:37:23;1006;;;13.73;69.24
64230;BME280;50547;49.498;0.092;2022-11-20T12:40:00;1006;;;13.75;69.59
64230;BME280;50547;49.498;0.092;2022-11-20T12:42:42;1006;;;13.80;70.84
64230;BME280;50547;49.498;0.092;2022-11-20T12:45:46;1006;;;13.80;71.04
64230;BME280;50547;49.498;0.092;2022-11-20T12:48:41;1006;;;13.71;70.01
64230;BME280;50547;49.498;0.092;2022-11-20T12:51:47;1006;;;13.75;69.61
64230;BME280;50547;49.498;0.092;2022-11-20T12:54:31;1006;;;13.34;72.78
64230;BME280;50547;49.498;0.092;2022-11-20T12:57:09;1006;;;12.94;74.80
64230;BME280;50547;49.498;0.092;2022-11-20T13:00:09;1006;;;12.73;75.74
64230;BME280;50547;49.498;0.092;2022-11-20T13:02:55;1006;;;12.88;75.30
64230;BME280;50547;49.498;0.092;2022-11-20T13:05:37;1006;;;13.08;75.25
64230;BME280;50547;49.498;0.092;2022-11-20T13:08:20;1006;;;13.07;74.66
64230;BME280;50547;49.498;0.092;2022-11-20T13:10:54;1005;;;13.12;73.00
64230;BME280;50547;49.498;0.092;2022-11-20T13:13:33;1006;;;13.55;70.70
64230;BME280;50547;49.498;0.092;2022-11-20T13:16:08;1006;;;13.57;70.59
64230;BME280;50547;49.498;0.092;2022-11-20T13:18:40;1006;;;13.61;70.33
64230;BME280;50547;49.498;0.092;2022-11-20T13:21:16;1006;;;13.81;68.26
64230;BME280;50547;49.498;0.092;2022-11-20T13:23:46;1006;;;14.34;65.87
64230;BME280;50547;49.498;0.092;2022-11-20T13:26:19;1006;;;14.72;65.23
64230;BME280;50547;49.498;0.092;2022-11-20T13:29:12;1006;;;14.73;68.23
64230;BME280;50547;49.498;0.092;2022-11-20T13:31:46;1006;;;14.50;71.66
64230;BME280;50547;49.498;0.092;2022-11-20T13:34:24;1006;;;13.75;75.32
64230;BME280;50547;49.498;0.092;2022-11-20T13:36:55;1006;;;13.43;77.46
64230;BME280;50547;49.498;0.092;2022-11-20T13:39:26;1006;;;13.10;79.49
64230;BME280;50547;49.498;0.092;2022-11-20T13:41:57;1006;;;12.64;80.66
64230;BME280;50547;49.498;0.092;2022-11-20T13:44:31;1006;;;12.08;79.64
64230;BME280;50547;49.498;0.092;2022-11-20T13:47:02;1006;;;12.08;78.24
64230;BME280;50547;49.498;0.092;2022-11-20T13:49:37;1006;;;12.15;78.21
64230;BME280;50547;49.498;0.092;2022-11-20T13:52:29;1006;;;12.95;74.88
64230;BME280;50547;49.498;0.092;2022-11-20T13:55:12;1006;;;13.22;71.75
64230;BME280;50547;49.498;0.092;2022-11-20T13:57:57;1006;;;13.27;70.97
64230;BME280;50547;49.498;0.092;2022-11-20T14:00:28;1006;;;13.47;71.20
64230;BME280;50547;49.498;0.092;2022-11-20T14:03:06;1006;;;13.37;71.10
64230;BME280;50547;49.498;0.092;2022-11-20T14:05:40;1006;;;13.43;71.89
64230;BME280;50547;49.498;0.092;2022-11-20T14:08:23;1006;;;13.48;71.95
64230;BME280;50547;49.498;0.092;2022-11-20T14:11:15;1006;;;13.48;71.31
64230;BME280;50547;49.498;0.092;2022-11-20T14:13:55;1006;;;13.54;71.02
64230;BME280;50547;49.498;0.092;2022-11-20T14:16:25;1006;;;13.50;70.49